sensor_id;sensor_type;location;lat;lon;timestamp;temperature;humidity
37678;DHT22;23517;50.390;8.616;2022-12-24T00:00:59;9.70;55.60
37678;DHT22;23517;50.390;8.616;2022-12-24T00:03:26;9.70;55.20
37678;DHT22;23517;50.390;8.616;2022-12-24T00:05:53;9.70;56.00
37678;DHT22;23517;50.390;8.616;2022-12-24T00:08:20;9.70;55.60
37678;DHT22;23517;50.390;8.616;2022-12-24T00:10:51;9.70;55.80
37678;DHT22;23517;50.390;8.616;2022-12-24T00:13:19;9.70;55.10
37678;DHT22;23517;50.390;8.616;2022-12-24T00:15:46;9.70;54.60
37678;DHT22;23517;50.390;8.616;2022-12-24T00:18:13;9.60;55.50
37678;DHT22;23517;50.390;8.616;2022-12-24T00:20:40;9.60;55.60
37678;DHT22;23517;50.390;8.616;2022-12-24T00:23:07;9.60;55.20
37678;DHT22;23517;50.390;8.616;2022-12-24T00:25:34;9.60;55.20
37678;DHT22;23517;50.390;8.616;2022-12-24T00:28:01;9.60;55.20
37678;DHT22;23517;50.390;8.616;2022-12-24T00:30:28;9.60;55.00
37678;DHT22;23517;50.390;8.616;2022-12-24T00:32:55;9.60;55.30
37678;DHT22;23517;50.390;8.616;2022-12-24T00:35:23;9.50;55.70
37678;DHT22;23517;50.390;8.616;2022-12-24T00:37:49;9.50;56.60
37678;DHT22;23517;50.390;8.616;2022-12-24T00:40:17;9.50;57.10
37678;DHT22;23517;50.390;8.616;2022-12-24T00:42:43;9.50;57.60
37678;DHT22;23517;50.390;8.616;2022-12-24T00:45:11;9.50;58.30
37678;DHT22;23517;50.390;8.616;2022-12-24T00:47:38;9.50;58.80
37678;DHT22;23517;50.390;8.616;2022-12-24T00:50:05;9.50;59.30
37678;DHT22;23517;50.390;8.616;2022-12-24T00:52:33;9.40;59.90
37678;DHT22;23517;50.390;8.616;2022-12-24T00:55:00;9.40;60.30
37678;DHT22;23517;50.390;8.616;2022-12-24T00:57:26;9.50;60.40
37678;DHT22;23517;50.390;8.616;2022-12-24T00:59:53;9.50;60.10
37678;DHT22;23517;50.390;8.616;2022-12-24T01:02:20;9.50;60.40
37678;DHT22;23517;50.390;8.616;2022-12-24T01:04:47;9.50;59.90
37678;DHT22;23517;50.390;8.616;2022-12-24T01:07:33;9.40;60.30
37678;DHT22;23517;50.390;8.616;2022-12-24T01:09:59;9.40;61.40
37678;DHT22;23517;50.390;8.616;2022-12-24T01:12:26;9.40;61.40
37678;DHT22;23517;50.390;8.616;2022-12-24T01:14:53;9.40;60.40
37678;DHT22;23517;50.390;8.616;2022-12-24T01:17:20;9.30;60.90
37678;DHT22;23517;50.390;8.616;2022-12-24T01:19:47;9.30;61.40
37678;DHT22;23517;50.390;8.616;2022-12-24T01:22:13;9.30;61.40
37678;DHT22;23517;50.390;8.616;2022-12-24T01:24:41;9.30;61.20
37678;DHT22;23517;50.390;8.616;2022-12-24T01:27:08;9.30;60.80
37678;DHT22;23517;50.390;8.616;2022-12-24T01:29:35;9.30;61.20
37678;DHT22;23517;50.390;8.616;2022-12-24T01:32:01;9.20;60.90
37678;DHT22;23517;50.390;8.616;2022-12-24T01:34:29;9.20;60.80
37678;DHT22;23517;50.390;8.616;2022-12-24T01:36:55;9.20;60.90
37678;DHT22;23517;50.390;8.616;2022-12-24T01:39:22;9.20;61.10
37678;DHT22;23517;50.390;8.616;2022-12-24T01:41:49;9.20;60.70
37678;DHT22;23517;50.390;8.616;2022-12-24T01:44:39;9.10;61.50
37678;DHT22;23517;50.390;8.616;2022-12-24T01:47:11;9.10;61.50
37678;DHT22;23517;50.390;8.616;2022-12-24T01:49:44;9.10;61.30
37678;DHT22;23517;50.390;8.616;2022-12-24T01:52:22;9.00;61.50
37678;DHT22;23517;50.390;8.616;2022-12-24T01:54:54;8.90;61.60
37678;DHT22;23517;50.390;8.616;2022-12-24T02:00:22;8.90;61.90
37678;DHT22;23517;50.390;8.616;2022-12-24T02:02:50;8.80;62.20
37678;DHT22;23517;50.390;8.616;2022-12-24T02:05:30;8.80;62.70
37678;DHT22;23517;50.390;8.616;2022-12-24T02:08:01;8.80;63.20
37678;DHT22;23517;50.390;8.616;2022-12-24T02:10:29;8.70;64.30
37678;DHT22;23517;50.390;8.616;2022-12-24T02:12:57;8.70;64.30
37678;DHT22;23517;50.390;8.616;2022-12-24T02:15:30;8.70;64.00
37678;DHT22;23517;50.390;8.616;2022-12-24T02:18:09;8.70;63.50
37678;DHT22;23517;50.390;8.616;2022-12-24T02:24:07;8.80;63.10
37678;DHT22;23517;50.390;8.616;2022-12-24T02:27:31;8.90;63.80
37678;DHT22;23517;50.390;8.616;2022-12-24T02:30:09;8.90;63.10
37678;DHT22;23517;50.390;8.616;2022-12-24T02:32:55;8.90;63.70
37678;DHT22;23517;50.390;8.616;2022-12-24T02:35:49;8.90;63.80
37678;DHT22;23517;50.390;8.616;2022-12-24T02:38:46;8.90;64.40
37678;DHT22;23517;50.390;8.616;2022-12-24T02:41:21;8.90;64.10
37678;DHT22;23517;50.390;8.616;2022-12-24T02:43:52;8.90;64.60
37678;DHT22;23517;50.390;8.616;2022-12-24T02:46:26;9.00;64.00
37678;DHT22;23517;50.390;8.616;2022-12-24T02:48:55;9.00;64.00
37678;DHT22;23517;50.390;8.616;2022-12-24T02:51:24;9.00;64.00
37678;DHT22;23517;50.390;8.616;2022-12-24T02:53:51;9.00;64.30
37678;DHT22;23517;50.390;8.616;2022-12-24T02:56:33;9.00;64.30
37678;DHT22;23517;50.390;8.616;2022-12-24T02:59:19;9.00;65.70
37678;DHT22;23517;50.390;8.616;2022-12-24T03:08:40;9.10;64.60
37678;DHT22;23517;50.390;8.616;2022-12-24T03:11:14;9.10;64.80
37678;DHT22;23517;50.390;8.616;2022-12-24T03:13:42;9.10;65.30
37678;DHT22;23517;50.390;8.616;2022-12-24T03:16:12;9.10;66.10
37678;DHT22;23517;50.390;8.616;2022-12-24T03:18:44;9.10;66.10
37678;DHT22;23517;50.390;8.616;2022-12-24T03:21:31;9.10;65.60
37678;DHT22;23517;50.390;8.616;2022-12-24T03:23:59;9.10;65.90
37678;DHT22;23517;50.390;8.616;2022-12-24T03:26:28;9.00;66.20
37678;DHT22;23517;50.390;8.616;2022-12-24T03:28:56;9.00;66.50
37678;DHT22;23517;50.390;8.616;2022-12-24T03:31:23;9.00;67.10
37678;DHT22;23517;50.390;8.616;2022-12-24T03:33:50;9.00;67.70
37678;DHT22;23517;50.390;8.616;2022-12-24T03:36:17;9.00;67.60
37678;DHT22;23517;50.390;8.616;2022-12-24T03:38:43;9.00;68.10
37678;DHT22;23517;50.390;8.616;2022-12-24T03:41:10;9.00;68.70
37678;DHT22;23517;50.390;8.616;2022-12-24T03:43:37;9.00;68.60
37678;DHT22;23517;50.390;8.616;2022-12-24T03:46:07;9.00;68.40
37678;DHT22;23517;50.390;8.616;2022-12-24T03:48:34;9.00;68.00
37678;DHT22;23517;50.390;8.616;2022-12-24T03:51:02;9.00;68.80
37678;DHT22;23517;50.390;8.616;2022-12-24T03:53:29;9.00;68.20
37678;DHT22;23517;50.390;8.616;2022-12-24T03:55:56;9.00;68.60
37678;DHT22;23517;50.390;8.616;2022-12-24T03:58:23;8.90;69.30
37678;DHT22;23517;50.390;8.616;2022-12-24T04:00:52;8.90;69.70
37678;DHT22;23517;50.390;8.616;2022-12-24T04:03:19;9.00;69.60
37678;DHT22;23517;50.390;8.616;2022-12-24T04:05:46;9.00;70.00
37678;DHT22;23517;50.390;8.616;2022-12-24T04:08:13;9.20;68.90
37678;DHT22;23517;50.390;8.616;2022-12-24T04:10:39;9.20;68.00
37678;DHT22;23517;50.390;8.616;2022-12-24T04:13:06;9.20;67.90
37678;DHT22;23517;50.390;8.616;2022-12-24T04:15:33;9.30;68.10
37678;DHT22;23517;50.390;8.616;2022-12-24T04:17:59;9.30;68.30
37678;DHT22;23517;50.390;8.616;2022-12-24T04:20:26;9.20;69.00
37678;DHT22;23517;50.390;8.616;2022-12-24T04:22:52;9.20;69.60
37678;DHT22;23517;50.390;8.616;2022-12-24T04:25:19;9.20;69.50
37678;DHT22;23517;50.390;8.616;2022-12-24T04:27:46;9.20;69.20
37678;DHT22;23517;50.390;8.616;2022-12-24T04:30:13;9.20;69.10
37678;DHT22;23517;50.390;8.616;2022-12-24T04:32:39;9.20;68.80
37678;DHT22;23517;50.390;8.616;2022-12-24T04:35:06;9.20;69.20
37678;DHT22;23517;50.390;8.616;2022-12-24T04:37:33;9.30;68.40
37678;DHT22;23517;50.390;8.616;2022-12-24T04:40:00;9.20;68.40
37678;DHT22;23517;50.390;8.616;2022-12-24T04:42:27;9.30;68.90
37678;DHT22;23517;50.390;8.616;2022-12-24T04:44:54;9.30;68.00
37678;DHT22;23517;50.390;8.616;2022-12-24T04:47:20;9.30;67.60
37678;DHT22;23517;50.390;8.616;2022-12-24T04:49:47;9.30;68.90
37678;DHT22;23517;50.390;8.616;2022-12-24T04:52:13;9.40;67.60
37678;DHT22;23517;50.390;8.616;2022-12-24T04:54:40;9.40;67.80
37678;DHT22;23517;50.390;8.616;2022-12-24T04:57:15;9.40;68.00
37678;DHT22;23517;50.390;8.616;2022-12-24T04:59:42;9.40;68.00
37678;DHT22;23517;50.390;8.616;2022-12-24T05:02:08;9.30;68.10
37678;DHT22;23517;50.390;8.616;2022-12-24T05:04:35;9.30;68.90
37678;DHT22;23517;50.390;8.616;2022-12-24T05:07:02;9.30;69.10
37678;DHT22;23517;50.390;8.616;2022-12-24T05:09:29;9.30;69.70
37678;DHT22;23517;50.390;8.616;2022-12-24T05:11:56;9.30;69.70
37678;DHT22;23517;50.390;8.616;2022-12-24T05:14:22;9.30;70.00
37678;DHT22;23517;50.390;8.616;2022-12-24T05:16:49;9.30;70.40
37678;DHT22;23517;50.390;8.616;2022-12-24T05:19:16;9.30;70.80
37678;DHT22;23517;50.390;8.616;2022-12-24T05:21:42;9.30;70.50
37678;DHT22;23517;50.390;8.616;2022-12-24T05:24:10;9.30;70.70
37678;DHT22;23517;50.390;8.616;2022-12-24T05:26:56;9.30;71.50
37678;DHT22;23517;50.390;8.616;2022-12-24T05:29:24;9.30;72.90
37678;DHT22;23517;50.390;8.616;2022-12-24T05:31:51;9.30;72.00
37678;DHT22;23517;50.390;8.616;2022-12-24T05:34:18;9.30;72.20
37678;DHT22;23517;50.390;8.616;2022-12-24T05:36:44;9.30;72.00
37678;DHT22;23517;50.390;8.616;2022-12-24T05:39:15;9.30;72.00
37678;DHT22;23517;50.390;8.616;2022-12-24T05:41:44;9.30;72.00
37678;DHT22;23517;50.390;8.616;2022-12-24T05:44:11;9.30;72.20
37678;DHT22;23517;50.390;8.616;2022-12-24T05:46:38;9.20;72.80
37678;DHT22;23517;50.390;8.616;2022-12-24T05:49:05;9.20;73.10
37678;DHT22;23517;50.390;8.616;2022-12-24T05:51:32;9.10;73.70
37678;DHT22;23517;50.390;8.616;2022-12-24T05:54:02;9.10;74.40
37678;DHT22;23517;50.390;8.616;2022-12-24T05:56:29;9.00;74.50
37678;DHT22;23517;50.390;8.616;2022-12-24T05:58:55;9.10;75.10
37678;DHT22;23517;50.390;8.616;2022-12-24T06:01:24;9.10;74.50
37678;DHT22;23517;50.390;8.616;2022-12-24T06:03:51;9.00;74.50
37678;DHT22;23517;50.390;8.616;2022-12-24T06:06:21;9.00;75.10
37678;DHT22;23517;50.390;8.616;2022-12-24T06:08:50;9.00;74.70
37678;DHT22;23517;50.390;8.616;2022-12-24T06:11:22;9.00;74.90
37678;DHT22;23517;50.390;8.616;2022-12-24T06:13:53;8.90;75.30
37678;DHT22;23517;50.390;8.616;2022-12-24T06:16:20;8.90;75.20
37678;DHT22;23517;50.390;8.616;2022-12-24T06:18:48;9.00;75.50
37678;DHT22;23517;50.390;8.616;2022-12-24T06:21:15;8.90;75.10
37678;DHT22;23517;50.390;8.616;2022-12-24T06:23:50;8.90;74.90
37678;DHT22;23517;50.390;8.616;2022-12-24T06:26:20;8.90;74.50
37678;DHT22;23517;50.390;8.616;2022-12-24T06:28:49;8.90;74.30
37678;DHT22;23517;50.390;8.616;2022-12-24T06:31:19;8.90;73.70
37678;DHT22;23517;50.390;8.616;2022-12-24T06:33:49;8.90;74.70
37678;DHT22;23517;50.390;8.616;2022-12-24T06:36:18;9.00;74.40
37678;DHT22;23517;50.390;8.616;2022-12-24T06:38:48;9.00;73.90
37678;DHT22;23517;50.390;8.616;2022-12-24T06:41:16;9.00;74.10
37678;DHT22;23517;50.390;8.616;2022-12-24T06:43:45;9.00;74.80
37678;DHT22;23517;50.390;8.616;2022-12-24T06:46:13;9.10;74.70
37678;DHT22;23517;50.390;8.616;2022-12-24T06:48:42;9.10;75.20
37678;DHT22;23517;50.390;8.616;2022-12-24T06:51:11;9.10;75.50
37678;DHT22;23517;50.390;8.616;2022-12-24T06:53:38;9.00;75.90
37678;DHT22;23517;50.390;8.616;2022-12-24T06:56:07;9.00;76.70
37678;DHT22;23517;50.390;8.616;2022-12-24T06:58:36;9.00;78.30
37678;DHT22;23517;50.390;8.616;2022-12-24T07:01:04;9.00;77.60
37678;DHT22;23517;50.390;8.616;2022-12-24T07:03:33;9.00;78.60
37678;DHT22;23517;50.390;8.616;2022-12-24T07:06:00;9.00;79.50
37678;DHT22;23517;50.390;8.616;2022-12-24T07:08:27;9.00;80.00
37678;DHT22;23517;50.390;8.616;2022-12-24T07:10:53;9.00;80.50
37678;DHT22;23517;50.390;8.616;2022-12-24T07:13:21;8.90;81.10
37678;DHT22;23517;50.390;8.616;2022-12-24T07:15:56;9.00;80.60
37678;DHT22;23517;50.390;8.616;2022-12-24T07:18:26;8.90;81.50
37678;DHT22;23517;50.390;8.616;2022-12-24T07:20:53;8.90;83.20
37678;DHT22;23517;50.390;8.616;2022-12-24T07:23:19;8.90;83.40
37678;DHT22;23517;50.390;8.616;2022-12-24T07:25:46;8.90;85.10
37678;DHT22;23517;50.390;8.616;2022-12-24T07:28:13;8.90;86.10
37678;DHT22;23517;50.390;8.616;2022-12-24T07:30:40;8.90;86.50
37678;DHT22;23517;50.390;8.616;2022-12-24T07:33:07;8.90;87.70
37678;DHT22;23517;50.390;8.616;2022-12-24T07:35:34;8.90;85.80
37678;DHT22;23517;50.390;8.616;2022-12-24T07:38:01;8.90;85.30
37678;DHT22;23517;50.390;8.616;2022-12-24T07:40:28;8.90;85.80
37678;DHT22;23517;50.390;8.616;2022-12-24T07:42:57;8.90;86.10
37678;DHT22;23517;50.390;8.616;2022-12-24T07:45:23;8.90;87.90
37678;DHT22;23517;50.390;8.616;2022-12-24T07:47:50;8.90;87.90
37678;DHT22;23517;50.390;8.616;2022-12-24T07:50:17;8.90;89.00
37678;DHT22;23517;50.390;8.616;2022-12-24T07:52:44;8.90;88.60
37678;DHT22;23517;50.390;8.616;2022-12-24T07:55:11;8.90;88.50
37678;DHT22;23517;50.390;8.616;2022-12-24T07:57:37;8.90;89.10
37678;DHT22;23517;50.390;8.616;2022-12-24T08:00:04;8.90;89.60
37678;DHT22;23517;50.390;8.616;2022-12-24T08:02:31;8.90;90.30
37678;DHT22;23517;50.390;8.616;2022-12-24T08:04:58;8.90;91.20
37678;DHT22;23517;50.390;8.616;2022-12-24T08:07:25;9.00;90.00
37678;DHT22;23517;50.390;8.616;2022-12-24T08:09:52;9.00;90.20
37678;DHT22;23517;50.390;8.616;2022-12-24T08:12:18;9.00;90.30
37678;DHT22;23517;50.390;8.616;2022-12-24T08:14:45;9.00;90.40
37678;DHT22;23517;50.390;8.616;2022-12-24T08:17:12;8.90;90.50
37678;DHT22;23517;50.390;8.616;2022-12-24T08:19:38;9.00;90.60
37678;DHT22;23517;50.390;8.616;2022-12-24T08:22:05;9.00;90.40
37678;DHT22;23517;50.390;8.616;2022-12-24T08:24:31;9.10;89.80
37678;DHT22;23517;50.390;8.616;2022-12-24T08:26:58;9.20;89.90
37678;DHT22;23517;50.390;8.616;2022-12-24T08:29:25;9.30;89.80
37678;DHT22;23517;50.390;8.616;2022-12-24T08:31:54;9.40;89.20
37678;DHT22;23517;50.390;8.616;2022-12-24T08:34:21;9.50;88.50
37678;DHT22;23517;50.390;8.616;2022-12-24T08:36:47;9.60;85.50
37678;DHT22;23517;50.390;8.616;2022-12-24T08:39:14;9.70;83.40
37678;DHT22;23517;50.390;8.616;2022-12-24T08:41:41;9.80;82.40
37678;DHT22;23517;50.390;8.616;2022-12-24T08:44:07;9.90;81.00
37678;DHT22;23517;50.390;8.616;2022-12-24T08:46:34;9.90;80.60
37678;DHT22;23517;50.390;8.616;2022-12-24T08:49:00;9.90;80.10
37678;DHT22;23517;50.390;8.616;2022-12-24T08:51:27;9.90;80.00
37678;DHT22;23517;50.390;8.616;2022-12-24T08:53:54;9.80;80.10
37678;DHT22;23517;50.390;8.616;2022-12-24T08:56:21;9.90;79.20
37678;DHT22;23517;50.390;8.616;2022-12-24T08:58:48;9.90;79.60
37678;DHT22;23517;50.390;8.616;2022-12-24T09:01:17;9.90;79.50
37678;DHT22;23517;50.390;8.616;2022-12-24T09:03:44;10.00;78.30
37678;DHT22;23517;50.390;8.616;2022-12-24T09:06:11;10.20;77.40
37678;DHT22;23517;50.390;8.616;2022-12-24T09:08:38;10.30;75.70
37678;DHT22;23517;50.390;8.616;2022-12-24T09:11:08;10.40;75.30
37678;DHT22;23517;50.390;8.616;2022-12-24T09:13:39;10.50;74.80
37678;DHT22;23517;50.390;8.616;2022-12-24T09:16:07;10.70;73.50
37678;DHT22;23517;50.390;8.616;2022-12-24T09:18:34;10.90;71.80
37678;DHT22;23517;50.390;8.616;2022-12-24T09:21:02;11.10;68.40
37678;DHT22;23517;50.390;8.616;2022-12-24T09:23:34;11.20;68.00
37678;DHT22;23517;50.390;8.616;2022-12-24T09:26:19;11.50;67.50
37678;DHT22;23517;50.390;8.616;2022-12-24T09:28:48;11.60;63.60
37678;DHT22;23517;50.390;8.616;2022-12-24T09:31:16;11.70;63.90
37678;DHT22;23517;50.390;8.616;2022-12-24T09:33:45;11.70;61.70
37678;DHT22;23517;50.390;8.616;2022-12-24T09:36:13;11.80;61.60
37678;DHT22;23517;50.390;8.616;2022-12-24T09:38:40;11.70;61.00
37678;DHT22;23517;50.390;8.616;2022-12-24T09:41:21;11.70;61.30
37678;DHT22;23517;50.390;8.616;2022-12-24T09:50:02;11.50;63.00
37678;DHT22;23517;50.390;8.616;2022-12-24T09:52:39;11.50;62.30
37678;DHT22;23517;50.390;8.616;2022-12-24T09:57:49;11.60;63.20
37678;DHT22;23517;50.390;8.616;2022-12-24T10:00:30;11.70;62.20
37678;DHT22;23517;50.390;8.616;2022-12-24T10:02:59;11.80;60.20
37678;DHT22;23517;50.390;8.616;2022-12-24T10:05:50;11.70;59.80
37678;DHT22;23517;50.390;8.616;2022-12-24T10:09:04;11.70;60.10
37678;DHT22;23517;50.390;8.616;2022-12-24T10:21:00;11.80;59.10
37678;DHT22;23517;50.390;8.616;2022-12-24T10:24:05;11.90;58.80
37678;DHT22;23517;50.390;8.616;2022-12-24T10:27:05;11.90;58.80
37678;DHT22;23517;50.390;8.616;2022-12-24T10:29:41;11.90;58.10
37678;DHT22;23517;50.390;8.616;2022-12-24T10:34:52;11.80;57.00
37678;DHT22;23517;50.390;8.616;2022-12-24T10:37:27;11.70;57.60
37678;DHT22;23517;50.390;8.616;2022-12-24T10:39:56;11.60;57.50
37678;DHT22;23517;50.390;8.616;2022-12-24T10:42:38;11.50;57.70
37678;DHT22;23517;50.390;8.616;2022-12-24T10:45:20;11.50;57.90
37678;DHT22;23517;50.390;8.616;2022-12-24T10:47:52;11.50;57.40
37678;DHT22;23517;50.390;8.616;2022-12-24T10:50:34;11.50;57.80
37678;DHT22;23517;50.390;8.616;2022-12-24T10:56:05;11.50;57.90
37678;DHT22;23517;50.390;8.616;2022-12-24T10:58:33;11.60;57.50
37678;DHT22;23517;50.390;8.616;2022-12-24T11:01:01;11.70;57.50
37678;DHT22;23517;50.390;8.616;2022-12-24T11:03:35;11.90;56.50
37678;DHT22;23517;50.390;8.616;2022-12-24T11:06:13;11.90;56.10
37678;DHT22;23517;50.390;8.616;2022-12-24T11:08:43;12.00;56.10
37678;DHT22;23517;50.390;8.616;2022-12-24T11:11:13;12.10;54.80
37678;DHT22;23517;50.390;8.616;2022-12-24T11:16:29;12.20;54.00
37678;DHT22;23517;50.390;8.616;2022-12-24T11:19:02;12.10;54.80
37678;DHT22;23517;50.390;8.616;2022-12-24T11:21:39;12.10;54.90
37678;DHT22;23517;50.390;8.616;2022-12-24T11:26:39;12.30;55.30
37678;DHT22;23517;50.390;8.616;2022-12-24T11:31:34;12.30;53.40
37678;DHT22;23517;50.390;8.616;2022-12-24T11:34:29;12.20;53.20
37678;DHT22;23517;50.390;8.616;2022-12-24T11:39:49;12.20;54.40
37678;DHT22;23517;50.390;8.616;2022-12-24T11:42:33;12.20;53.80
37678;DHT22;23517;50.390;8.616;2022-12-24T11:45:25;12.30;53.90
37678;DHT22;23517;50.390;8.616;2022-12-24T11:47:55;12.20;54.30
37678;DHT22;23517;50.390;8.616;2022-12-24T11:50:29;12.10;53.30
37678;DHT22;23517;50.390;8.616;2022-12-24T11:53:14;12.00;54.20
37678;DHT22;23517;50.390;8.616;2022-12-24T11:58:42;11.80;53.30
37678;DHT22;23517;50.390;8.616;2022-12-24T12:04:17;11.60;55.70
37678;DHT22;23517;50.390;8.616;2022-12-24T12:12:25;11.70;55.40
37678;DHT22;23517;50.390;8.616;2022-12-24T12:15:04;11.70;55.10
37678;DHT22;23517;50.390;8.616;2022-12-24T12:17:53;11.80;55.20
37678;DHT22;23517;50.390;8.616;2022-12-24T12:20:37;11.80;55.10
37678;DHT22;23517;50.390;8.616;2022-12-24T12:25:56;11.90;55.20
37678;DHT22;23517;50.390;8.616;2022-12-24T12:31:24;12.00;53.90
37678;DHT22;23517;50.390;8.616;2022-12-24T12:34:15;11.90;54.10
37678;DHT22;23517;50.390;8.616;2022-12-24T12:36:53;12.10;54.40
37678;DHT22;23517;50.390;8.616;2022-12-24T12:39:30;11.80;54.90
37678;DHT22;23517;50.390;8.616;2022-12-24T12:45:14;11.70;54.80
37678;DHT22;23517;50.390;8.616;2022-12-24T12:57:10;11.70;53.30
37678;DHT22;23517;50.390;8.616;2022-12-24T12:59:51;11.60;53.10
37678;DHT22;23517;50.390;8.616;2022-12-24T13:03:00;11.50;53.50
37678;DHT22;23517;50.390;8.616;2022-12-24T13:12:09;11.50;54.70
37678;DHT22;23517;50.390;8.616;2022-12-24T13:20:32;11.70;54.30
37678;DHT22;23517;50.390;8.616;2022-12-24T13:23:00;11.80;53.60
37678;DHT22;23517;50.390;8.616;2022-12-24T13:25:36;11.80;53.20
37678;DHT22;23517;50.390;8.616;2022-12-24T13:30:52;11.80;53.20
37678;DHT22;23517;50.390;8.616;2022-12-24T13:36:11;11.90;53.50
37678;DHT22;23517;50.390;8.616;2022-12-24T13:38:49;11.90;53.80
37678;DHT22;23517;50.390;8.616;2022-12-24T13:46:52;11.70;52.90
37678;DHT22;23517;50.390;8.616;2022-12-24T13:54:40;11.60;53.40
37678;DHT22;23517;50.390;8.616;2022-12-24T14:00:31;11.50;54.80
37678;DHT22;23517;50.390;8.616;2022-12-24T14:08:11;11.60;55.10
37678;DHT22;23517;50.390;8.616;2022-12-24T14:16:40;11.50;55.80
37678;DHT22;23517;50.390;8.616;2022-12-24T14:22:01;11.30;56.30
37678;DHT22;23517;50.390;8.616;2022-12-24T14:24:45;11.20;57.30
37678;DHT22;23517;50.390;8.616;2022-12-24T14:27:50;11.10;57.40
37678;DHT22;23517;50.390;8.616;2022-12-24T14:32:51;11.10;59.70
37678;DHT22;23517;50.390;8.616;2022-12-24T14:35:21;11.10;60.00
37678;DHT22;23517;50.390;8.616;2022-12-24T14:38:25;11.10;61.30
37678;DHT22;23517;50.390;8.616;2022-12-24T14:41:18;11.00;61.60
37678;DHT22;23517;50.390;8.616;2022-12-24T14:44:22;10.80;62.50
37678;DHT22;23517;50.390;8.616;2022-12-24T14:47:17;10.70;63.90
37678;DHT22;23517;50.390;8.616;2022-12-24T14:50:03;10.50;65.50
37678;DHT22;23517;50.390;8.616;2022-12-24T14:55:47;10.20;69.70
37678;DHT22;23517;50.390;8.616;2022-12-24T15:09:19;9.40;79.30
37678;DHT22;23517;50.390;8.616;2022-12-24T15:11:48;9.20;80.60
37678;DHT22;23517;50.390;8.616;2022-12-24T15:14:17;9.10;80.60
37678;DHT22;23517;50.390;8.616;2022-12-24T15:16:56;9.00;81.20
37678;DHT22;23517;50.390;8.616;2022-12-24T15:19:32;9.00;82.10
37678;DHT22;23517;50.390;8.616;2022-12-24T15:22:02;8.90;83.80
37678;DHT22;23517;50.390;8.616;2022-12-24T15:24:32;8.80;84.80
37678;DHT22;23517;50.390;8.616;2022-12-24T15:27:13;8.70;85.60
37678;DHT22;23517;50.390;8.616;2022-12-24T15:29:43;8.60;87.30
37678;DHT22;23517;50.390;8.616;2022-12-24T15:32:16;8.60;88.30
37678;DHT22;23517;50.390;8.616;2022-12-24T15:34:49;8.60;88.80
37678;DHT22;23517;50.390;8.616;2022-12-24T15:37:21;8.60;89.40
37678;DHT22;23517;50.390;8.616;2022-12-24T15:40:18;8.50;89.60
37678;DHT22;23517;50.390;8.616;2022-12-24T15:42:46;8.40;89.40
37678;DHT22;23517;50.390;8.616;2022-12-24T15:47:59;8.30;89.00
37678;DHT22;23517;50.390;8.616;2022-12-24T15:50:28;8.20;89.10
37678;DHT22;23517;50.390;8.616;2022-12-24T15:53:10;8.10;89.90
37678;DHT22;23517;50.390;8.616;2022-12-24T16:03:37;7.70;90.00
37678;DHT22;23517;50.390;8.616;2022-12-24T16:06:11;7.60;90.30
37678;DHT22;23517;50.390;8.616;2022-12-24T16:08:39;7.50;89.30
37678;DHT22;23517;50.390;8.616;2022-12-24T16:11:24;7.50;90.10
37678;DHT22;23517;50.390;8.616;2022-12-24T16:14:00;7.40;88.60
37678;DHT22;23517;50.390;8.616;2022-12-24T16:16:35;7.30;89.10
37678;DHT22;23517;50.390;8.616;2022-12-24T16:19:06;7.30;89.80
37678;DHT22;23517;50.390;8.616;2022-12-24T16:21:42;7.20;89.70
37678;DHT22;23517;50.390;8.616;2022-12-24T16:24:23;7.10;90.10
37678;DHT22;23517;50.390;8.616;2022-12-24T16:26:51;7.00;91.00
37678;DHT22;23517;50.390;8.616;2022-12-24T16:29:19;6.90;89.70
37678;DHT22;23517;50.390;8.616;2022-12-24T16:31:53;6.80;90.20
37678;DHT22;23517;50.390;8.616;2022-12-24T16:34:30;6.80;89.60
37678;DHT22;23517;50.390;8.616;2022-12-24T16:36:58;6.70;89.60
37678;DHT22;23517;50.390;8.616;2022-12-24T16:39:31;6.60;91.10
37678;DHT22;23517;50.390;8.616;2022-12-24T16:42:01;6.60;91.10
37678;DHT22;23517;50.390;8.616;2022-12-24T16:44:47;6.50;92.50
37678;DHT22;23517;50.390;8.616;2022-12-24T16:47:29;6.40;92.10
37678;DHT22;23517;50.390;8.616;2022-12-24T16:50:05;6.40;92.90
37678;DHT22;23517;50.390;8.616;2022-12-24T16:52:33;6.40;92.60
37678;DHT22;23517;50.390;8.616;2022-12-24T16:55:01;6.40;93.20
37678;DHT22;23517;50.390;8.616;2022-12-24T16:57:27;6.40;95.40
37678;DHT22;23517;50.390;8.616;2022-12-24T16:59:54;6.50;95.30
37678;DHT22;23517;50.390;8.616;2022-12-24T17:02:22;6.50;95.40
37678;DHT22;23517;50.390;8.616;2022-12-24T17:04:50;6.50;95.70
37678;DHT22;23517;50.390;8.616;2022-12-24T17:07:20;6.60;96.10
37678;DHT22;23517;50.390;8.616;2022-12-24T17:09:47;6.60;96.30
37678;DHT22;23517;50.390;8.616;2022-12-24T17:12:14;6.60;96.00
37678;DHT22;23517;50.390;8.616;2022-12-24T17:14:41;6.70;96.20
37678;DHT22;23517;50.390;8.616;2022-12-24T17:17:22;6.70;96.20
37678;DHT22;23517;50.390;8.616;2022-12-24T17:19:51;6.80;96.70
37678;DHT22;23517;50.390;8.616;2022-12-24T17:22:18;6.80;95.50
37678;DHT22;23517;50.390;8.616;2022-12-24T17:24:45;6.70;94.70
37678;DHT22;23517;50.390;8.616;2022-12-24T17:27:12;6.70;95.70
37678;DHT22;23517;50.390;8.616;2022-12-24T17:29:39;6.70;96.00
37678;DHT22;23517;50.390;8.616;2022-12-24T17:32:06;6.70;95.40
37678;DHT22;23517;50.390;8.616;2022-12-24T17:34:35;6.60;93.70
37678;DHT22;23517;50.390;8.616;2022-12-24T17:37:01;6.50;93.80
37678;DHT22;23517;50.390;8.616;2022-12-24T17:39:28;6.40;93.90
37678;DHT22;23517;50.390;8.616;2022-12-24T17:42:00;6.30;94.50
37678;DHT22;23517;50.390;8.616;2022-12-24T17:44:26;6.20;94.20
37678;DHT22;23517;50.390;8.616;2022-12-24T17:46:53;6.10;94.70
37678;DHT22;23517;50.390;8.616;2022-12-24T17:49:20;6.10;95.20
37678;DHT22;23517;50.390;8.616;2022-12-24T17:51:46;6.10;95.20
37678;DHT22;23517;50.390;8.616;2022-12-24T17:54:13;6.10;95.60
37678;DHT22;23517;50.390;8.616;2022-12-24T17:56:42;6.00;95.40
37678;DHT22;23517;50.390;8.616;2022-12-24T17:59:09;6.00;95.30
37678;DHT22;23517;50.390;8.616;2022-12-24T18:01:36;5.90;95.20
37678;DHT22;23517;50.390;8.616;2022-12-24T18:04:03;5.90;95.30
37678;DHT22;23517;50.390;8.616;2022-12-24T18:06:30;5.80;95.80
37678;DHT22;23517;50.390;8.616;2022-12-24T18:08:57;5.80;95.70
37678;DHT22;23517;50.390;8.616;2022-12-24T18:11:34;5.80;95.70
37678;DHT22;23517;50.390;8.616;2022-12-24T18:14:03;5.70;96.20
37678;DHT22;23517;50.390;8.616;2022-12-24T18:16:35;5.70;96.50
37678;DHT22;23517;50.390;8.616;2022-12-24T18:19:07;5.60;95.70
37678;DHT22;23517;50.390;8.616;2022-12-24T18:21:35;5.60;96.60
37678;DHT22;23517;50.390;8.616;2022-12-24T18:24:02;5.60;95.80
37678;DHT22;23517;50.390;8.616;2022-12-24T18:26:30;5.60;95.50
37678;DHT22;23517;50.390;8.616;2022-12-24T18:29:00;5.60;95.30
37678;DHT22;23517;50.390;8.616;2022-12-24T18:31:30;5.50;95.90
37678;DHT22;23517;50.390;8.616;2022-12-24T18:34:01;5.60;96.00
37678;DHT22;23517;50.390;8.616;2022-12-24T18:36:28;5.50;95.80
37678;DHT22;23517;50.390;8.616;2022-12-24T18:38:56;5.40;96.40